createdAt,value
2017-12-23T00:02:25.534Z,103110.00
2017-12-23T00:04:52.184Z,103109.10
2017-12-23T00:07:18.366Z,103105.59
2017-12-23T00:09:45.466Z,103088.59
2017-12-23T00:12:11.737Z,103091.20
2017-12-23T00:14:37.940Z,103087.29
2017-12-23T00:17:04.129Z,103085.94
2017-12-23T00:19:30.401Z,103093.38
2017-12-23T00:21:56.639Z,103099.46
2017-12-23T00:24:22.862Z,103103.83
2017-12-23T00:26:49.436Z,103095.09
2017-12-23T00:29:15.695Z,103099.88
2017-12-23T00:31:41.924Z,103099.42
2017-12-23T00:34:08.467Z,103099.88
2017-12-23T00:36:34.683Z,103088.92
2017-12-23T00:39:00.872Z,103089.83
2017-12-23T00:41:27.190Z,103086.77
2017-12-23T00:43:53.427Z,103088.07
2017-12-23T00:46:19.657Z,103092.44
2017-12-23T00:48:45.921Z,103086.27
2017-12-23T00:51:12.133Z,103081.45
2017-12-23T00:53:38.316Z,103081.86
2017-12-23T00:56:04.603Z,103073.57
2017-12-23T00:58:30.840Z,103067.45
2017-12-23T01:00:57.050Z,103058.26
2017-12-23T01:03:23.313Z,103052.58
2017-12-23T01:05:49.570Z,103047.80
2017-12-23T01:08:15.833Z,103044.73
2017-12-23T01:10:42.123Z,103048.20
2017-12-23T01:13:08.342Z,103044.25
2017-12-23T01:15:35.339Z,103028.08
2017-12-23T01:18:01.561Z,103019.86
2017-12-23T01:20:27.765Z,103015.05
2017-12-23T01:22:54.464Z,102997.13
2017-12-23T01:25:21.106Z,102984.09
2017-12-23T01:27:47.322Z,102984.09
2017-12-23T01:30:13.705Z,102990.55
2017-12-23T01:32:39.933Z,102993.16
2017-12-23T01:35:06.162Z,102992.72
2017-12-23T01:37:32.825Z,103002.31
2017-12-23T01:39:59.057Z,103003.20
2017-12-23T01:42:25.246Z,102997.50
2017-12-23T01:44:51.855Z,102998.84
2017-12-23T01:47:18.088Z,102999.29
2017-12-23T01:49:44.309Z,102994.88
2017-12-23T01:52:10.823Z,103009.70
2017-12-23T01:54:37.083Z,103002.73
2017-12-23T01:57:03.620Z,103007.05
2017-12-23T01:59:29.948Z,103006.20
2017-12-23T02:01:56.180Z,102996.59
2017-12-23T02:04:22.472Z,102992.68
2017-12-23T02:09:20.506Z,102980.92
2017-12-23T02:11:47.025Z,102975.69
2017-12-23T02:14:13.668Z,102972.63
2017-12-23T02:16:39.852Z,102971.32
2017-12-23T02:19:06.095Z,102953.84
2017-12-23T02:21:32.765Z,102943.39
2017-12-23T02:23:59.015Z,102944.28
2017-12-23T02:26:25.278Z,102962.58
2017-12-23T02:28:51.848Z,102950.82
2017-12-23T02:31:18.062Z,102946.00
2017-12-23T02:33:44.290Z,102924.20
2017-12-23T02:36:10.525Z,102911.09
2017-12-23T02:38:36.726Z,102905.88
2017-12-23T02:41:02.980Z,102905.83
2017-12-23T02:43:29.314Z,102903.25
2017-12-23T02:45:55.531Z,102912.41
2017-12-23T02:48:21.725Z,102908.93
2017-12-23T02:50:48.341Z,102911.98
2017-12-23T02:53:14.584Z,102894.55
2017-12-23T02:55:40.823Z,102886.30
2017-12-23T02:58:07.470Z,102885.86
2017-12-23T03:00:33.712Z,102885.81
2017-12-23T03:02:59.912Z,102887.13
2017-12-23T03:05:26.175Z,102868.38
2017-12-23T03:07:52.434Z,102864.02
2017-12-23T03:10:18.656Z,102853.97
2017-12-23T03:12:44.904Z,102861.41
2017-12-23T03:15:11.136Z,102857.45
2017-12-23T03:17:37.305Z,102847.89
2017-12-23T03:20:03.618Z,102833.93
2017-12-23T03:22:29.857Z,102829.56
2017-12-23T03:24:56.079Z,102824.78
2017-12-23T03:27:22.313Z,102828.67
2017-12-23T03:29:48.560Z,102823.03
2017-12-23T03:32:14.764Z,102818.70
2017-12-23T03:34:41.760Z,102812.16
2017-12-23T03:37:07.943Z,102794.28
2017-12-23T03:39:34.121Z,102787.34
2017-12-23T03:42:00.386Z,102790.36
2017-12-23T03:44:26.609Z,102801.67
2017-12-23T03:46:53.034Z,102794.25
2017-12-23T03:49:19.697Z,102792.95
2017-12-23T03:51:45.886Z,102785.10
2017-12-23T03:54:12.134Z,102778.56
2017-12-23T03:56:38.364Z,102778.13
2017-12-23T03:59:04.569Z,102766.36
2017-12-23T04:01:30.782Z,102759.80
2017-12-23T04:03:57.026Z,102747.63
2017-12-23T04:06:23.685Z,102749.34
2017-12-23T04:08:49.968Z,102747.18
2017-12-23T04:11:16.227Z,102749.76
2017-12-23T04:13:42.526Z,102744.09
2017-12-23T04:16:09.060Z,102741.51
2017-12-23T04:18:35.286Z,102740.17
2017-12-23T04:21:01.542Z,102743.67
2017-12-23T04:23:28.047Z,102734.97
2017-12-23T04:25:54.580Z,102718.41
2017-12-23T04:28:21.222Z,102717.06
2017-12-23T04:30:47.756Z,102722.30
2017-12-23T04:33:14.285Z,102708.30
2017-12-23T04:35:40.919Z,102708.34
2017-12-23T04:38:07.151Z,102703.97
2017-12-23T04:40:33.391Z,102698.75
2017-12-23T04:42:59.794Z,102700.91
2017-12-23T04:45:26.004Z,102690.87
2017-12-23T04:47:52.402Z,102686.55
2017-12-23T04:50:19.045Z,102687.85
2017-12-23T04:52:45.228Z,102684.34
2017-12-23T04:55:11.757Z,102674.34
2017-12-23T04:57:38.098Z,102674.34
2017-12-23T05:00:04.295Z,102670.42
2017-12-23T05:02:30.523Z,102660.42
2017-12-23T05:04:57.138Z,102656.94
2017-12-23T05:07:23.353Z,102660.42
2017-12-23T05:09:49.578Z,102670.42
2017-12-23T05:12:16.795Z,102667.81
2017-12-23T05:14:43.024Z,102673.86
2017-12-23T05:17:09.450Z,102663.00
2017-12-23T05:19:35.986Z,102661.72
2017-12-23T05:22:02.231Z,102659.08
2017-12-23T05:24:28.477Z,102658.22
2017-12-23T05:26:54.946Z,102659.94
2017-12-23T05:29:21.129Z,102661.25
2017-12-23T05:31:47.346Z,102662.97
2017-12-23T05:34:13.614Z,102651.18
2017-12-23T05:36:39.810Z,102642.03
2017-12-23T05:39:06.015Z,102646.84
2017-12-23T05:41:32.263Z,102634.23
2017-12-23T05:43:58.462Z,102625.53
2017-12-23T05:46:24.641Z,102633.78
2017-12-23T05:48:50.938Z,102635.95
2017-12-23T05:51:17.367Z,102630.73
2017-12-23T05:53:43.615Z,102631.59
2017-12-23T05:56:09.932Z,102627.22
2017-12-23T05:58:36.169Z,102612.88
2017-12-23T06:01:02.408Z,102615.91
2017-12-23T06:03:28.681Z,102621.58
2017-12-23T06:05:54.869Z,102620.27
2017-12-23T06:08:21.065Z,102607.66
2017-12-23T06:10:47.357Z,102612.47
2017-12-23T06:13:13.667Z,102605.94
2017-12-23T06:15:39.887Z,102607.21
2017-12-23T06:18:06.199Z,102605.05
2017-12-23T06:20:32.413Z,102594.15
2017-12-23T06:22:58.943Z,102592.39
2017-12-23T06:25:25.685Z,102598.93
2017-12-23T06:30:23.858Z,102602.41
2017-12-23T06:32:50.114Z,102594.09
2017-12-23T06:35:16.329Z,102592.81
2017-12-23T06:37:42.571Z,102579.34
2017-12-23T06:40:08.864Z,102581.05
2017-12-23T06:42:35.296Z,102579.78
2017-12-23T06:45:01.555Z,102558.22
2017-12-23T06:47:28.183Z,102592.84
2017-12-23T06:49:54.386Z,102591.06
2017-12-23T06:52:20.638Z,102593.20
2017-12-23T06:54:46.924Z,102606.71
2017-12-23T06:57:13.500Z,102601.04
2017-12-23T06:59:39.750Z,102607.57
2017-12-23T07:02:06.067Z,102606.71
2017-12-23T07:04:32.256Z,102604.55
2017-12-23T07:06:58.535Z,102595.82
2017-12-23T07:09:24.845Z,102595.34
2017-12-23T07:11:51.195Z,102588.40
2017-12-23T07:14:17.433Z,102570.11
2017-12-23T07:16:43.621Z,102561.83
2017-12-23T07:19:10.224Z,102581.84
2017-12-23T07:21:36.459Z,102578.78
2017-12-23T07:24:02.685Z,102560.08
2017-12-23T07:26:29.379Z,102557.47
2017-12-23T07:28:55.578Z,102560.50
2017-12-23T07:31:21.835Z,102558.33
2017-12-23T07:33:48.415Z,102564.00
2017-12-23T07:36:14.645Z,102566.16
2017-12-23T07:38:40.848Z,102566.61
2017-12-23T07:41:07.150Z,102567.02
2017-12-23T07:43:33.379Z,102567.47
2017-12-23T07:45:59.627Z,102585.31
2017-12-23T07:48:25.902Z,102603.19
2017-12-23T07:50:52.113Z,102597.96
2017-12-23T07:53:18.415Z,102613.19
2017-12-23T07:55:44.602Z,102611.88
2017-12-23T07:58:10.855Z,102614.05
2017-12-23T08:00:37.125Z,102614.91
2017-12-23T08:03:03.366Z,102592.28
2017-12-23T08:05:29.569Z,102587.06
2017-12-23T08:07:55.829Z,102570.50
2017-12-23T08:10:22.035Z,102572.67
2017-12-23T08:12:48.311Z,102563.97
2017-12-23T08:15:15.070Z,102561.33
2017-12-23T08:17:41.538Z,102563.05
2017-12-23T08:20:07.809Z,102564.77
2017-12-23T08:22:34.472Z,102556.49
2017-12-23T08:25:00.655Z,102566.11
2017-12-23T08:27:26.878Z,102571.78
2017-12-23T08:29:53.150Z,102569.61
2017-12-23T08:32:19.374Z,102572.63
2017-12-23T08:34:45.560Z,102577.89
2017-12-23T08:37:12.044Z,102580.06
2017-12-23T08:39:38.301Z,102578.28
2017-12-23T08:42:04.739Z,102595.25
2017-12-23T08:44:31.385Z,102587.01
2017-12-23T08:46:57.567Z,102596.15
2017-12-23T08:49:23.781Z,102579.14
2017-12-23T08:51:50.018Z,102587.84
2017-12-23T08:54:16.244Z,102600.48
2017-12-23T08:56:42.585Z,102603.51
2017-12-23T08:59:08.910Z,102601.79
2017-12-23T09:01:35.119Z,102594.40
2017-12-23T09:04:01.440Z,102587.84
2017-12-23T09:06:27.663Z,102573.89
2017-12-23T09:08:53.866Z,102571.28
2017-12-23T09:11:20.875Z,102568.22
2017-12-23T09:13:47.104Z,102550.77
2017-12-23T09:16:13.343Z,102550.34
2017-12-23T09:18:39.651Z,102541.66
2017-12-23T09:21:05.891Z,102543.85
2017-12-23T09:23:32.185Z,102544.30
2017-12-23T09:25:58.796Z,102553.88
2017-12-23T09:28:24.998Z,102553.44
2017-12-23T09:30:51.217Z,102557.36
2017-12-23T09:33:17.849Z,102549.48
2017-12-23T09:35:44.035Z,102549.05
2017-12-23T09:38:10.213Z,102550.80
2017-12-23T09:40:36.486Z,102544.72
2017-12-23T09:43:02.756Z,102542.11
2017-12-23T09:45:28.999Z,102546.91
2017-12-23T09:47:55.279Z,102549.97
2017-12-23T09:50:21.506Z,102563.44
2017-12-23T09:52:47.961Z,102549.52
2017-12-23T09:55:14.628Z,102547.33
2017-12-23T09:57:40.898Z,102546.46
2017-12-23T10:00:07.242Z,102550.38
2017-12-23T10:02:33.480Z,102562.58
2017-12-23T10:04:59.666Z,102549.10
2017-12-23T10:07:26.275Z,102556.05
2017-12-23T10:09:52.490Z,102556.50
2017-12-23T10:12:19.035Z,102549.97
2017-12-23T10:14:45.266Z,102536.48
2017-12-23T10:17:11.550Z,102539.52
2017-12-23T10:19:38.186Z,102532.95
2017-12-23T10:22:04.635Z,102520.78
2017-12-23T10:24:30.851Z,102525.59
2017-12-23T10:26:57.542Z,102523.42
2017-12-23T10:29:23.750Z,102522.13
2017-12-23T10:31:49.971Z,102514.70
2017-12-23T10:34:16.553Z,102508.59
2017-12-23T10:36:42.810Z,102512.06
2017-12-23T10:39:09.022Z,102512.09
2017-12-23T10:41:35.623Z,102502.95
2017-12-23T10:44:02.160Z,102499.42
2017-12-23T10:46:28.414Z,102503.81
2017-12-23T10:48:55.078Z,102495.53
2017-12-23T10:51:21.378Z,102506.45
2017-12-23T10:53:47.552Z,102482.47
2017-12-23T10:56:13.822Z,102482.47
2017-12-23T10:58:40.033Z,102476.83
2017-12-23T11:01:06.241Z,102481.58
2017-12-23T11:03:32.506Z,102466.77
2017-12-23T11:05:58.772Z,102464.16
2017-12-23T11:08:24.946Z,102469.39
2017-12-23T11:10:51.222Z,102466.39
2017-12-23T11:13:17.483Z,102448.97
2017-12-23T11:15:43.721Z,102446.34
2017-12-23T11:18:10.033Z,102443.30
2017-12-23T11:20:36.364Z,102437.20
2017-12-23T11:23:02.636Z,102441.13
2017-12-23T11:25:28.910Z,102423.28
2017-12-23T11:27:55.134Z,102415.00
2017-12-23T11:30:21.318Z,102416.73
2017-12-23T11:32:47.924Z,102427.20
2017-12-23T11:35:14.128Z,102413.23
2017-12-23T11:37:40.350Z,102420.23
2017-12-23T11:40:06.979Z,102437.65
2017-12-23T11:42:33.282Z,102425.89
2017-12-23T11:44:59.449Z,102416.78
2017-12-23T11:47:25.748Z,102421.97
2017-12-23T11:49:51.960Z,102411.97
2017-12-23T11:52:18.401Z,102402.39
2017-12-23T11:54:44.986Z,102397.58
2017-12-23T11:57:11.200Z,102406.31
2017-12-23T11:59:37.397Z,102405.89
2017-12-23T12:02:04.215Z,102396.30
2017-12-23T12:04:30.441Z,102394.13
2017-12-23T12:06:56.711Z,102396.75
2017-12-23T12:09:23.026Z,102397.64
2017-12-23T12:11:49.301Z,102412.41
2017-12-23T12:14:15.704Z,102415.92
2017-12-23T12:16:42.058Z,102407.63
2017-12-23T12:19:08.637Z,102409.38
2017-12-23T12:21:34.947Z,102399.83
2017-12-23T12:24:01.495Z,102400.27
2017-12-23T12:26:27.729Z,102403.30
2017-12-23T12:28:53.939Z,102398.52
2017-12-23T12:31:21.006Z,102389.36
2017-12-23T12:33:47.225Z,102389.33
2017-12-23T12:36:13.446Z,102384.55
2017-12-23T12:38:39.746Z,102391.52
2017-12-23T12:41:06.000Z,102383.69
2017-12-23T12:43:32.355Z,102382.39
2017-12-23T12:45:58.629Z,102375.83
2017-12-23T12:48:24.883Z,102367.11
2017-12-23T12:50:51.134Z,102361.88
2017-12-23T12:53:17.426Z,102350.99
2017-12-23T12:55:43.650Z,102355.35
2017-12-23T12:58:09.969Z,102342.72
2017-12-23T13:00:36.681Z,102345.33
2017-12-23T13:03:02.914Z,102355.77
2017-12-23T13:05:29.172Z,102367.09
2017-12-23T13:07:55.699Z,102344.86
2017-12-23T13:10:21.949Z,102336.16
2017-12-23T13:12:48.152Z,102341.41
2017-12-23T13:15:14.439Z,102339.24
2017-12-23T13:17:40.713Z,102347.08
2017-12-23T13:20:06.917Z,102342.27
2017-12-23T13:22:33.455Z,102345.30
2017-12-23T13:24:59.658Z,102341.83
2017-12-23T13:27:25.914Z,102334.44
2017-12-23T13:29:52.180Z,102331.83
2017-12-23T13:32:18.417Z,102338.34
2017-12-23T13:34:44.607Z,102331.36
2017-12-23T13:37:10.912Z,102334.83
2017-12-23T13:39:37.113Z,102344.42
2017-12-23T13:42:03.347Z,102333.95
2017-12-23T13:44:29.647Z,102330.48
2017-12-23T13:46:55.886Z,102334.84
2017-12-23T13:49:22.085Z,102334.40
2017-12-23T13:51:48.341Z,102329.59
2017-12-23T13:54:14.543Z,102336.54
2017-12-23T13:56:41.033Z,102323.51
2017-12-23T13:59:07.640Z,102329.17
2017-12-23T14:01:33.850Z,102326.13
2017-12-23T14:04:00.438Z,102333.53
2017-12-23T14:06:26.710Z,102333.53
2017-12-23T14:08:52.906Z,102330.03
2017-12-23T14:11:19.129Z,102328.31
2017-12-23T14:13:45.422Z,102318.70
2017-12-23T14:16:11.628Z,102328.29
2017-12-23T14:18:37.970Z,102324.38
2017-12-23T14:21:04.418Z,102320.43
2017-12-23T14:23:30.765Z,102320.88
2017-12-23T14:25:57.080Z,102325.23
2017-12-23T14:28:23.450Z,102319.13
2017-12-23T14:30:49.785Z,102320.88
2017-12-23T14:33:16.090Z,102303.46
2017-12-23T14:35:42.474Z,102314.34
2017-12-23T14:38:08.820Z,102304.76
2017-12-23T14:40:35.222Z,102302.15
2017-12-23T14:43:01.579Z,102296.92
2017-12-23T14:45:27.905Z,102271.52
2017-12-23T14:47:54.286Z,102282.59
2017-12-23T14:50:20.741Z,102276.31
2017-12-23T14:52:47.043Z,102295.18
2017-12-23T14:55:13.398Z,102293.45
2017-12-23T14:57:39.765Z,102297.38
2017-12-23T15:00:06.068Z,102293.02
2017-12-23T15:02:32.396Z,102284.73
2017-12-23T15:04:59.119Z,102294.30
2017-12-23T15:07:25.377Z,102280.35
2017-12-23T15:09:51.623Z,102287.35
2017-12-23T15:12:17.956Z,102284.29
2017-12-23T15:14:44.286Z,102281.68
2017-12-23T15:17:10.600Z,102281.27
2017-12-23T15:19:37.018Z,102270.37
2017-12-23T15:22:03.478Z,102266.03
2017-12-23T15:24:29.770Z,102271.67
2017-12-23T15:26:56.394Z,102272.54
2017-12-23T15:29:22.658Z,102281.70
2017-12-23T15:31:48.964Z,102279.09
2017-12-23T15:34:15.592Z,102281.28
2017-12-23T15:36:41.829Z,102278.20
2017-12-23T15:39:08.171Z,102268.64
2017-12-23T15:41:34.566Z,102269.09
2017-12-23T15:44:00.829Z,102263.86
2017-12-23T15:46:27.109Z,102268.22
2017-12-23T15:48:53.686Z,102260.83
2017-12-23T15:51:19.899Z,102269.97
2017-12-23T15:53:46.092Z,102273.03
2017-12-23T15:56:12.316Z,102281.72
2017-12-23T15:58:38.532Z,102274.78
2017-12-23T16:01:04.720Z,102274.77
2017-12-23T16:03:31.726Z,102264.33
2017-12-23T16:05:58.297Z,102266.49
2017-12-23T16:08:24.549Z,102256.50
2017-12-23T16:10:50.816Z,102262.58
2017-12-23T16:13:17.042Z,102254.30
2017-12-23T16:15:43.322Z,102261.28
2017-12-23T16:18:09.596Z,102258.25
2017-12-23T16:20:36.017Z,102253.46
2017-12-23T16:23:02.315Z,102250.84
2017-12-23T16:25:28.907Z,102243.87
2017-12-23T16:27:55.470Z,102242.16
2017-12-23T16:30:21.707Z,102237.37
2017-12-23T16:32:47.990Z,102232.56
2017-12-23T16:35:14.246Z,102234.31
2017-12-23T16:37:40.474Z,102232.15
2017-12-23T16:40:07.131Z,102224.30
2017-12-23T16:42:33.317Z,102226.45
2017-12-23T16:44:59.562Z,102222.56
2017-12-23T16:47:25.862Z,102225.17
2017-12-23T16:49:52.453Z,102214.28
2017-12-23T16:52:18.637Z,102213.84
2017-12-23T16:54:45.249Z,102211.23
2017-12-23T16:57:11.492Z,102202.53
2017-12-23T16:59:37.758Z,102201.66
2017-12-23T17:02:04.018Z,102190.33
2017-12-23T17:04:30.450Z,102192.52
2017-12-23T17:06:56.684Z,102184.23
2017-12-23T17:09:23.232Z,102197.73
2017-12-23T17:11:49.441Z,102195.54
2017-12-23T17:14:15.661Z,102179.02
2017-12-23T17:16:41.980Z,102181.20
2017-12-23T17:19:09.167Z,102179.45
2017-12-23T17:21:35.442Z,102174.65
2017-12-23T17:24:01.783Z,102175.53
2017-12-23T17:26:27.988Z,102171.19
2017-12-23T17:29:06.891Z,102166.82
2017-12-23T17:31:33.135Z,102167.23
2017-12-23T17:33:59.375Z,102158.10
2017-12-23T17:36:25.635Z,102166.82
2017-12-23T17:38:51.853Z,102171.19
2017-12-23T17:41:18.071Z,102155.05
2017-12-23T17:43:45.132Z,102156.82
2017-12-23T17:46:11.404Z,102162.48
2017-12-23T17:48:37.625Z,102165.09
2017-12-23T17:51:03.915Z,102161.17
2017-12-23T17:53:30.145Z,102165.08
2017-12-23T17:55:56.683Z,102169.45
2017-12-23T17:58:22.984Z,102189.48
2017-12-23T18:00:49.253Z,102181.23
2017-12-23T18:03:15.499Z,102187.73
2017-12-23T18:05:41.741Z,102193.81
2017-12-23T18:08:07.996Z,102193.84
2017-12-23T18:10:34.236Z,102183.39
2017-12-23T18:13:00.555Z,102173.36
2017-12-23T18:15:26.759Z,102186.42
2017-12-23T18:17:52.983Z,102189.04
2017-12-23T18:20:19.259Z,102185.09
2017-12-23T18:22:45.814Z,102175.98
2017-12-23T18:25:12.070Z,102173.78
2017-12-23T18:27:38.427Z,102170.73
2017-12-23T18:30:04.652Z,102179.03
2017-12-23T18:32:31.240Z,102176.42
2017-12-23T18:34:57.517Z,102178.59
2017-12-23T18:37:23.745Z,102181.20
2017-12-23T18:39:49.968Z,102175.98
2017-12-23T18:42:16.275Z,102171.62
2017-12-23T18:44:42.513Z,102173.38
2017-12-23T18:47:08.769Z,102176.42
2017-12-23T18:49:35.026Z,102174.67
2017-12-23T18:52:01.292Z,102162.48
2017-12-23T18:54:27.501Z,102172.04
2017-12-23T18:56:53.745Z,102184.69
2017-12-23T18:59:20.008Z,102179.45
2017-12-23T19:01:46.224Z,102179.45
2017-12-23T19:04:12.460Z,102178.59
2017-12-23T19:06:39.048Z,102188.60
2017-12-23T19:09:05.269Z,102186.85
2017-12-23T19:11:32.210Z,102182.05
2017-12-23T19:13:58.751Z,102180.30
2017-12-23T19:16:37.381Z,102178.58
2017-12-23T19:19:03.631Z,102178.58
2017-12-23T19:21:29.882Z,102174.21
2017-12-23T19:23:56.243Z,102172.02
2017-12-23T19:26:22.662Z,102159.41
2017-12-23T19:28:48.961Z,102159.41
2017-12-23T19:31:15.647Z,102167.25
2017-12-23T19:33:41.882Z,102157.69
2017-12-23T19:36:08.106Z,102157.66
2017-12-23T19:38:34.380Z,102161.57
2017-12-23T19:41:00.990Z,102156.82
2017-12-23T19:43:27.236Z,102166.80
2017-12-23T19:45:53.959Z,102154.19
2017-12-23T19:48:20.214Z,102167.25
2017-12-23T19:50:46.504Z,102144.19
2017-12-23T19:53:12.772Z,102149.83
2017-12-23T19:55:39.274Z,102162.45
2017-12-23T19:58:05.502Z,102153.33
2017-12-23T20:00:32.139Z,102156.36
2017-12-23T20:02:58.378Z,102157.66
2017-12-23T20:05:24.570Z,102158.52
2017-12-23T20:07:50.899Z,102167.25
2017-12-23T20:10:17.464Z,102176.80
2017-12-23T20:12:43.765Z,102146.75
2017-12-23T20:15:10.075Z,102160.70
2017-12-23T20:17:36.383Z,102147.64
2017-12-23T20:20:02.637Z,102151.56
2017-12-23T20:22:28.861Z,102125.45
2017-12-23T20:24:55.129Z,102121.95
2017-12-23T20:27:21.379Z,102139.34
2017-12-23T20:29:47.653Z,102126.77
2017-12-23T20:32:13.958Z,102142.84
2017-12-23T20:34:40.221Z,102131.08
2017-12-23T20:37:06.541Z,102131.52
2017-12-23T20:39:32.776Z,102130.66
2017-12-23T20:41:59.347Z,102108.02
2017-12-23T20:44:26.101Z,102103.66
2017-12-23T20:46:52.411Z,102102.77
2017-12-23T20:49:18.636Z,102114.51
2017-12-23T20:51:44.923Z,102103.22
2017-12-23T20:54:11.222Z,102099.30
2017-12-23T20:56:37.669Z,102089.30
2017-12-23T20:59:03.923Z,102084.97
2017-12-23T21:01:30.221Z,102093.21
2017-12-23T21:03:56.434Z,102083.61
2017-12-23T21:06:22.754Z,102082.31
2017-12-23T21:08:49.289Z,102080.15
2017-12-23T21:11:15.493Z,102074.47
2017-12-23T21:13:41.963Z,102078.39
2017-12-23T21:16:08.123Z,102074.91
2017-12-23T21:18:34.412Z,102060.13
2017-12-23T21:21:00.727Z,102074.06
2017-12-23T21:23:26.993Z,102071.86
2017-12-23T21:25:53.241Z,102074.48
2017-12-23T21:28:20.248Z,102079.70
2017-12-23T21:30:46.518Z,102073.63
2017-12-23T21:33:12.810Z,102070.98
2017-12-23T21:35:39.106Z,102077.54
2017-12-23T21:38:05.342Z,102068.40
2017-12-23T21:40:31.554Z,102076.67
2017-12-23T21:42:57.835Z,102074.48
2017-12-23T21:45:24.061Z,102075.38
2017-12-23T21:47:50.254Z,102062.73
2017-12-23T21:50:16.547Z,102070.14
2017-12-23T21:52:42.733Z,102062.31
2017-12-23T21:55:08.958Z,102050.56
2017-12-23T21:57:35.334Z,102053.16
2017-12-23T22:00:01.576Z,102047.07
2017-12-23T22:02:27.797Z,102053.61
2017-12-23T22:04:54.379Z,102056.63
2017-12-23T22:07:20.600Z,102036.19
2017-12-23T22:09:46.863Z,102034.00
2017-12-23T22:12:13.357Z,102030.94
2017-12-23T22:14:39.571Z,102030.09
2017-12-23T22:17:05.840Z,102027.92
2017-12-23T22:19:32.504Z,102027.03
2017-12-23T22:21:58.929Z,102031.84
2017-12-23T22:24:25.180Z,102027.48
2017-12-23T22:26:51.491Z,102036.59
2017-12-23T22:29:17.708Z,102023.12
2017-12-23T22:31:44.214Z,102021.81
2017-12-23T22:34:10.467Z,102020.95
2017-12-23T22:36:36.895Z,102017.45
2017-12-23T22:39:03.492Z,102028.34
2017-12-23T22:41:29.749Z,102034.86
2017-12-23T22:43:55.947Z,102038.78
2017-12-23T22:46:22.161Z,102032.27
2017-12-23T22:48:48.451Z,102054.03
2017-12-23T22:51:14.682Z,102046.19
2017-12-23T22:53:40.925Z,102064.91
2017-12-23T22:56:07.222Z,102057.08
2017-12-23T22:58:33.447Z,102064.91
2017-12-23T23:00:59.715Z,102055.77
2017-12-23T23:03:25.960Z,102044.04
2017-12-23T23:05:52.179Z,102061.88
2017-12-23T23:08:18.450Z,102061.00
2017-12-23T23:10:44.727Z,102063.61
2017-12-23T23:13:10.985Z,102063.17
2017-12-23T23:15:43.404Z,102056.20
2017-12-23T23:18:09.681Z,102055.79
2017-12-23T23:20:35.922Z,102062.31
2017-12-23T23:23:02.187Z,102053.59
2017-12-23T23:25:28.565Z,102030.54
2017-12-23T23:27:54.769Z,102041.42
2017-12-23T23:30:21.012Z,102024.89
2017-12-23T23:32:47.294Z,102036.20
2017-12-23T23:35:13.564Z,102030.98
2017-12-23T23:37:39.838Z,102034.45
2017-12-23T23:40:06.477Z,102030.98
2017-12-23T23:42:32.709Z,102029.67
2017-12-23T23:44:58.935Z,102023.59
2017-12-23T23:47:25.226Z,102037.08
2017-12-23T23:49:51.492Z,102023.56
2017-12-23T23:52:17.723Z,102034.00
2017-12-23T23:54:44.349Z,102024.02
2017-12-23T23:57:10.596Z,102030.54
2017-12-23T23:59:36.863Z,102040.98
